sensor_id;sensor_type;location;lat;lon;timestamp;pressure;altitude;pressure_sealevel;temperature;humidity
19286;BME280;9776;50.798;6.430;2023-06-22T00:02:21;100407.97;;;24.89;47.55
19286;BME280;9776;50.798;6.430;2023-06-22T00:04:47;100412.88;;;24.92;47.55
19286;BME280;9776;50.798;6.430;2023-06-22T00:07:14;100415.84;;;24.90;47.70
19286;BME280;9776;50.798;6.430;2023-06-22T00:09:42;100415.38;;;24.93;47.48
19286;BME280;9776;50.798;6.430;2023-06-22T00:12:08;100417.22;;;24.93;47.59
19286;BME280;9776;50.798;6.430;2023-06-22T00:14:35;100414.53;;;24.93;47.44
19286;BME280;9776;50.798;6.430;2023-06-22T00:17:02;100412.41;;;24.95;47.26
19286;BME280;9776;50.798;6.430;2023-06-22T00:19:28;100413.94;;;24.91;47.36
19286;BME280;9776;50.798;6.430;2023-06-22T00:21:55;100417.63;;;24.85;47.41
19286;BME280;9776;50.798;6.430;2023-06-22T00:24:25;100406.09;;;24.77;47.56
19286;BME280;9776;50.798;6.430;2023-06-22T00:26:53;100411.97;;;24.74;47.62
19286;BME280;9776;50.798;6.430;2023-06-22T00:29:20;100412.44;;;24.71;47.52
19286;BME280;9776;50.798;6.430;2023-06-22T00:31:46;100411.63;;;24.71;47.75
19286;BME280;9776;50.798;6.430;2023-06-22T00:34:13;100404.69;;;24.75;47.54
19286;BME280;9776;50.798;6.430;2023-06-22T00:36:39;100401.75;;;24.76;47.43
19286;BME280;9776;50.798;6.430;2023-06-22T00:39:07;100406.09;;;24.77;47.42
19286;BME280;9776;50.798;6.430;2023-06-22T00:41:34;100406.91;;;24.78;47.39
19286;BME280;9776;50.798;6.430;2023-06-22T00:44:02;100408.72;;;24.72;47.56
19286;BME280;9776;50.798;6.430;2023-06-22T00:46:29;100395.91;;;24.68;47.59
19286;BME280;9776;50.798;6.430;2023-06-22T00:48:55;100398.03;;;24.66;47.72
19286;BME280;9776;50.798;6.430;2023-06-22T00:51:23;100401.47;;;24.61;47.69
19286;BME280;9776;50.798;6.430;2023-06-22T00:53:50;100398.28;;;24.64;47.81
19286;BME280;9776;50.798;6.430;2023-06-22T00:56:17;100396.88;;;24.62;47.83
19286;BME280;9776;50.798;6.430;2023-06-22T00:58:44;100387.28;;;24.54;48.01
19286;BME280;9776;50.798;6.430;2023-06-22T01:01:13;100381.69;;;24.44;48.21
19286;BME280;9776;50.798;6.430;2023-06-22T01:03:40;100382.84;;;24.37;48.41
19286;BME280;9776;50.798;6.430;2023-06-22T01:06:10;100382.75;;;24.32;48.66
19286;BME280;9776;50.798;6.430;2023-06-22T01:08:42;100385.47;;;24.32;48.55
19286;BME280;9776;50.798;6.430;2023-06-22T01:11:14;100377.94;;;24.34;48.57
19286;BME280;9776;50.798;6.430;2023-06-22T01:13:49;100370.28;;;24.42;48.29
19286;BME280;9776;50.798;6.430;2023-06-22T01:16:23;100368.66;;;24.41;48.40
19286;BME280;9776;50.798;6.430;2023-06-22T01:18:52;100367.84;;;24.41;48.23
19286;BME280;9776;50.798;6.430;2023-06-22T01:21:23;100361.97;;;24.44;48.18
19286;BME280;9776;50.798;6.430;2023-06-22T01:24:01;100366.06;;;24.46;48.10
19286;BME280;9776;50.798;6.430;2023-06-22T01:26:37;100358.53;;;24.48;47.93
19286;BME280;9776;50.798;6.430;2023-06-22T01:29:08;100365.25;;;24.46;48.00
19286;BME280;9776;50.798;6.430;2023-06-22T01:31:39;100366.53;;;24.43;47.97
19286;BME280;9776;50.798;6.430;2023-06-22T01:34:07;100360.09;;;24.44;47.89
19286;BME280;9776;50.798;6.430;2023-06-22T01:36:35;100365.03;;;24.47;47.85
19286;BME280;9776;50.798;6.430;2023-06-22T01:39:04;100361.81;;;24.50;47.61
19286;BME280;9776;50.798;6.430;2023-06-22T01:41:34;100365.22;;;24.57;47.63
19286;BME280;9776;50.798;6.430;2023-06-22T01:44:02;100362.84;;;24.61;47.44
19286;BME280;9776;50.798;6.430;2023-06-22T01:46:32;100357.19;;;24.62;47.57
19286;BME280;9776;50.798;6.430;2023-06-22T01:48:59;100358.28;;;24.61;47.69
19286;BME280;9776;50.798;6.430;2023-06-22T01:51:26;100350.75;;;24.63;47.68
19286;BME280;9776;50.798;6.430;2023-06-22T01:53:52;100350.50;;;24.65;47.78
19286;BME280;9776;50.798;6.430;2023-06-22T01:56:19;100346.19;;;24.64;47.94
19286;BME280;9776;50.798;6.430;2023-06-22T01:58:49;100354.75;;;24.61;47.87
19286;BME280;9776;50.798;6.430;2023-06-22T02:01:20;100346.66;;;24.61;47.75
19286;BME280;9776;50.798;6.430;2023-06-22T02:03:57;100352.06;;;24.61;47.76
19286;BME280;9776;50.798;6.430;2023-06-22T02:06:32;100352.06;;;24.61;47.66
19286;BME280;9776;50.798;6.430;2023-06-22T02:09:02;100356.53;;;24.55;47.79
19286;BME280;9776;50.798;6.430;2023-06-22T02:11:33;100356.94;;;24.47;47.99
19286;BME280;9776;50.798;6.430;2023-06-22T02:14:01;100354.34;;;24.41;48.10
19286;BME280;9776;50.798;6.430;2023-06-22T02:16:28;100355.19;;;24.41;48.15
19286;BME280;9776;50.798;6.430;2023-06-22T02:19:01;100346.84;;;24.43;48.14
19286;BME280;9776;50.798;6.430;2023-06-22T02:21:29;100343.56;;;24.41;48.18
19286;BME280;9776;50.798;6.430;2023-06-22T02:23:55;100356.31;;;24.45;48.15
19286;BME280;9776;50.798;6.430;2023-06-22T02:26:23;100356.94;;;24.47;48.28
19286;BME280;9776;50.798;6.430;2023-06-22T02:28:51;100350.09;;;24.45;48.31
19286;BME280;9776;50.798;6.430;2023-06-22T02:31:18;100349.53;;;24.43;48.44
19286;BME280;9776;50.798;6.430;2023-06-22T02:33:45;100343.31;;;24.42;48.48
19286;BME280;9776;50.798;6.430;2023-06-22T02:36:13;100340.53;;;24.37;48.47
19286;BME280;9776;50.798;6.430;2023-06-22T02:38:40;100337.03;;;24.25;48.48
19286;BME280;9776;50.798;6.430;2023-06-22T02:41:14;100335.88;;;24.09;48.84
19286;BME280;9776;50.798;6.430;2023-06-22T02:43:44;100331.16;;;24.05;49.04
19286;BME280;9776;50.798;6.430;2023-06-22T02:46:11;100327.78;;;24.09;49.18
19286;BME280;9776;50.798;6.430;2023-06-22T02:48:38;100326.88;;;24.15;49.05
19286;BME280;9776;50.798;6.430;2023-06-22T02:51:04;100323.91;;;24.17;49.01
19286;BME280;9776;50.798;6.430;2023-06-22T02:53:32;100318.53;;;24.17;49.21
19286;BME280;9776;50.798;6.430;2023-06-22T02:56:00;100315.56;;;24.18;48.90
19286;BME280;9776;50.798;6.430;2023-06-22T02:58:27;100320.75;;;24.20;49.34
19286;BME280;9776;50.798;6.430;2023-06-22T03:00:53;100319.69;;;24.21;49.14
19286;BME280;9776;50.798;6.430;2023-06-22T03:03:20;100315.34;;;24.20;49.21
19286;BME280;9776;50.798;6.430;2023-06-22T03:05:47;100316.75;;;24.22;49.47
19286;BME280;9776;50.798;6.430;2023-06-22T03:08:13;100314.06;;;24.22;49.60
19286;BME280;9776;50.798;6.430;2023-06-22T03:10:41;100306.69;;;24.18;49.92
19286;BME280;9776;50.798;6.430;2023-06-22T03:13:08;100302.59;;;24.15;50.02
19286;BME280;9776;50.798;6.430;2023-06-22T03:15:34;100293.91;;;24.13;50.25
19286;BME280;9776;50.798;6.430;2023-06-22T03:18:01;100287.69;;;24.13;50.23
19286;BME280;9776;50.798;6.430;2023-06-22T03:20:28;100283.38;;;24.12;50.17
19286;BME280;9776;50.798;6.430;2023-06-22T03:22:59;100276.78;;;24.08;50.33
19286;BME280;9776;50.798;6.430;2023-06-22T03:25:25;100264.38;;;24.07;50.25
19286;BME280;9776;50.798;6.430;2023-06-22T03:27:53;100261.88;;;24.05;50.14
19286;BME280;9776;50.798;6.430;2023-06-22T03:30:20;100261.31;;;24.03;50.08
19286;BME280;9776;50.798;6.430;2023-06-22T03:32:46;100260.03;;;24.06;50.01
19286;BME280;9776;50.798;6.430;2023-06-22T03:35:13;100265.31;;;24.01;50.40
19286;BME280;9776;50.798;6.430;2023-06-22T03:37:40;100277.75;;;23.79;50.78
19286;BME280;9776;50.798;6.430;2023-06-22T03:40:08;100266.66;;;23.63;51.39
19286;BME280;9776;50.798;6.430;2023-06-22T03:42:35;100280.47;;;23.55;51.76
19286;BME280;9776;50.798;6.430;2023-06-22T03:45:03;100275.81;;;23.51;51.74
19286;BME280;9776;50.798;6.430;2023-06-22T03:47:30;100282.84;;;23.52;51.89
19286;BME280;9776;50.798;6.430;2023-06-22T03:49:57;100280.00;;;23.58;51.74
19286;BME280;9776;50.798;6.430;2023-06-22T03:52:23;100273.31;;;23.49;52.19
19286;BME280;9776;50.798;6.430;2023-06-22T03:54:50;100270.16;;;23.52;52.17
19286;BME280;9776;50.798;6.430;2023-06-22T03:57:17;100265.03;;;23.51;52.27
19286;BME280;9776;50.798;6.430;2023-06-22T03:59:44;100271.59;;;23.55;52.38
19286;BME280;9776;50.798;6.430;2023-06-22T04:02:12;100276.84;;;23.50;52.21
19286;BME280;9776;50.798;6.430;2023-06-22T04:04:38;100278.72;;;23.49;52.25
19286;BME280;9776;50.798;6.430;2023-06-22T04:07:05;100284.56;;;23.46;52.29
19286;BME280;9776;50.798;6.430;2023-06-22T04:09:33;100293.63;;;23.40;52.26
19286;BME280;9776;50.798;6.430;2023-06-22T04:11:59;100290.63;;;23.30;52.50
19286;BME280;9776;50.798;6.430;2023-06-22T04:14:26;100297.88;;;23.30;52.80
19286;BME280;9776;50.798;6.430;2023-06-22T04:16:52;100297.09;;;23.41;52.61
19286;BME280;9776;50.798;6.430;2023-06-22T04:19:20;100299.59;;;23.54;52.16
19286;BME280;9776;50.798;6.430;2023-06-22T04:21:47;100301.91;;;23.50;52.27
19286;BME280;9776;50.798;6.430;2023-06-22T04:24:14;100307.31;;;23.50;52.20
19286;BME280;9776;50.798;6.430;2023-06-22T04:26:40;100309.66;;;23.58;51.80
19286;BME280;9776;50.798;6.430;2023-06-22T04:29:07;100306.94;;;23.70;51.45
19286;BME280;9776;50.798;6.430;2023-06-22T04:31:35;100302.84;;;23.79;51.31
19286;BME280;9776;50.798;6.430;2023-06-22T04:34:03;100296.06;;;23.77;51.19
19286;BME280;9776;50.798;6.430;2023-06-22T04:36:34;100291.97;;;23.74;51.24
19286;BME280;9776;50.798;6.430;2023-06-22T04:39:03;100293.72;;;23.68;51.32
19286;BME280;9776;50.798;6.430;2023-06-22T04:41:30;100293.00;;;23.61;51.49
19286;BME280;9776;50.798;6.430;2023-06-22T04:44:07;100291.84;;;23.57;51.80
19286;BME280;9776;50.798;6.430;2023-06-22T04:46:34;100292.53;;;23.53;51.87
19286;BME280;9776;50.798;6.430;2023-06-22T04:49:04;100294.66;;;23.51;52.03
19286;BME280;9776;50.798;6.430;2023-06-22T04:51:39;100288.09;;;23.47;52.13
19286;BME280;9776;50.798;6.430;2023-06-22T04:54:06;100283.88;;;23.39;52.38
19286;BME280;9776;50.798;6.430;2023-06-22T04:56:33;100284.31;;;23.36;52.51
19286;BME280;9776;50.798;6.430;2023-06-22T04:59:00;100291.13;;;23.39;52.55
19286;BME280;9776;50.798;6.430;2023-06-22T05:01:28;100292.28;;;23.31;52.97
19286;BME280;9776;50.798;6.430;2023-06-22T05:03:56;100280.91;;;23.29;53.36
19286;BME280;9776;50.798;6.430;2023-06-22T05:06:26;100279.88;;;23.30;53.49
19286;BME280;9776;50.798;6.430;2023-06-22T05:08:56;100282.34;;;23.32;53.62
19286;BME280;9776;50.798;6.430;2023-06-22T05:11:24;100279.66;;;23.32;53.64
19286;BME280;9776;50.798;6.430;2023-06-22T05:13:50;100278.09;;;23.36;53.50
19286;BME280;9776;50.798;6.430;2023-06-22T05:16:17;100283.28;;;23.37;53.71
19286;BME280;9776;50.798;6.430;2023-06-22T05:18:50;100277.56;;;23.45;53.57
19286;BME280;9776;50.798;6.430;2023-06-22T05:21:17;100288.22;;;23.52;53.24
19286;BME280;9776;50.798;6.430;2023-06-22T05:23:44;100292.78;;;23.51;53.15
19286;BME280;9776;50.798;6.430;2023-06-22T05:26:12;100292.78;;;23.51;53.06
19286;BME280;9776;50.798;6.430;2023-06-22T05:28:38;100286.59;;;23.51;53.29
19286;BME280;9776;50.798;6.430;2023-06-22T05:31:05;100282.47;;;23.48;53.63
19286;BME280;9776;50.798;6.430;2023-06-22T05:33:32;100281.31;;;23.56;53.66
19286;BME280;9776;50.798;6.430;2023-06-22T05:35:58;100283.16;;;23.55;53.84
19286;BME280;9776;50.798;6.430;2023-06-22T05:38:25;100292.19;;;23.61;53.98
19286;BME280;9776;50.798;6.430;2023-06-22T05:40:51;100294.53;;;23.69;53.81
19286;BME280;9776;50.798;6.430;2023-06-22T05:43:19;100291.38;;;23.84;53.52
19286;BME280;9776;50.798;6.430;2023-06-22T05:45:46;100283.09;;;24.02;53.28
19286;BME280;9776;50.798;6.430;2023-06-22T05:48:13;100291.78;;;24.27;52.88
19286;BME280;9776;50.798;6.430;2023-06-22T05:50:39;100293.22;;;24.46;52.50
19286;BME280;9776;50.798;6.430;2023-06-22T05:53:06;100286.16;;;24.73;52.11
19286;BME280;9776;50.798;6.430;2023-06-22T05:55:33;100293.72;;;24.88;51.79
19286;BME280;9776;50.798;6.430;2023-06-22T05:57:59;100291.84;;;24.89;51.59
19286;BME280;9776;50.798;6.430;2023-06-22T06:00:27;100291.78;;;24.83;51.50
19286;BME280;9776;50.798;6.430;2023-06-22T06:02:54;100303.06;;;24.80;51.60
19286;BME280;9776;50.798;6.430;2023-06-22T06:05:20;100299.31;;;24.81;51.40
19286;BME280;9776;50.798;6.430;2023-06-22T06:07:49;100300.09;;;24.82;51.53
19286;BME280;9776;50.798;6.430;2023-06-22T06:10:15;100295.53;;;24.82;51.28
19286;BME280;9776;50.798;6.430;2023-06-22T06:12:42;100294.47;;;24.83;50.95
19286;BME280;9776;50.798;6.430;2023-06-22T06:15:09;100301.28;;;24.86;50.98
19286;BME280;9776;50.798;6.430;2023-06-22T06:17:45;100302.91;;;24.87;50.78
19286;BME280;9776;50.798;6.430;2023-06-22T06:20:11;100320.09;;;24.98;50.49
19286;BME280;9776;50.798;6.430;2023-06-22T06:22:38;100314.38;;;25.11;49.90
19286;BME280;9776;50.798;6.430;2023-06-22T06:25:05;100316.50;;;25.25;49.31
19286;BME280;9776;50.798;6.430;2023-06-22T06:27:32;100319.88;;;25.32;48.82
19286;BME280;9776;50.798;6.430;2023-06-22T06:29:59;100309.63;;;25.34;48.82
19286;BME280;9776;50.798;6.430;2023-06-22T06:32:25;100318.34;;;25.36;48.75
19286;BME280;9776;50.798;6.430;2023-06-22T06:34:53;100306.78;;;25.41;48.61
19286;BME280;9776;50.798;6.430;2023-06-22T06:37:20;100298.53;;;25.48;48.45
19286;BME280;9776;50.798;6.430;2023-06-22T06:39:46;100300.00;;;25.55;48.16
19286;BME280;9776;50.798;6.430;2023-06-22T06:42:13;100299.47;;;25.75;47.78
19286;BME280;9776;50.798;6.430;2023-06-22T06:44:39;100293.72;;;25.88;47.58
19286;BME280;9776;50.798;6.430;2023-06-22T06:47:07;100294.09;;;25.97;47.37
19286;BME280;9776;50.798;6.430;2023-06-22T06:49:33;100283.97;;;26.09;47.35
19286;BME280;9776;50.798;6.430;2023-06-22T06:52:02;100286.31;;;26.22;46.92
19286;BME280;9776;50.798;6.430;2023-06-22T06:54:28;100289.75;;;26.39;46.39
19286;BME280;9776;50.798;6.430;2023-06-22T06:56:55;100281.81;;;26.54;46.15
19286;BME280;9776;50.798;6.430;2023-06-22T06:59:21;100274.63;;;26.70;46.02
19286;BME280;9776;50.798;6.430;2023-06-22T07:01:48;100272.72;;;26.92;45.56
19286;BME280;9776;50.798;6.430;2023-06-22T07:04:15;100268.38;;;27.23;44.99
19286;BME280;9776;50.798;6.430;2023-06-22T07:06:41;100266.97;;;27.52;44.12
19286;BME280;9776;50.798;6.430;2023-06-22T07:09:09;100252.47;;;27.78;43.52
19286;BME280;9776;50.798;6.430;2023-06-22T07:11:36;100248.53;;;28.06;43.35
19286;BME280;9776;50.798;6.430;2023-06-22T07:14:02;100244.53;;;28.29;42.80
19286;BME280;9776;50.798;6.430;2023-06-22T07:16:29;100247.38;;;28.64;41.93
19286;BME280;9776;50.798;6.430;2023-06-22T07:18:56;100237.59;;;28.93;41.24
19286;BME280;9776;50.798;6.430;2023-06-22T07:21:23;100221.28;;;29.44;40.26
19286;BME280;9776;50.798;6.430;2023-06-22T07:23:50;100214.94;;;29.68;39.87
19286;BME280;9776;50.798;6.430;2023-06-22T07:26:18;100227.50;;;29.54;40.09
19286;BME280;9776;50.798;6.430;2023-06-22T07:28:44;100236.97;;;29.62;39.66
19286;BME280;9776;50.798;6.430;2023-06-22T07:31:11;100228.75;;;29.92;39.52
19286;BME280;9776;50.798;6.430;2023-06-22T07:33:37;100220.63;;;30.36;38.55
19286;BME280;9776;50.798;6.430;2023-06-22T07:36:04;100229.81;;;30.84;37.82
19286;BME280;9776;50.798;6.430;2023-06-22T07:38:33;100220.28;;;31.15;36.78
19286;BME280;9776;50.798;6.430;2023-06-22T07:40:59;100215.63;;;31.44;36.59
19286;BME280;9776;50.798;6.430;2023-06-22T07:43:27;100199.53;;;31.90;35.82
19286;BME280;9776;50.798;6.430;2023-06-22T07:45:55;100192.59;;;32.40;34.90
19286;BME280;9776;50.798;6.430;2023-06-22T07:48:22;100191.03;;;32.72;34.59
19286;BME280;9776;50.798;6.430;2023-06-22T07:50:48;100177.34;;;33.04;34.26
19286;BME280;9776;50.798;6.430;2023-06-22T07:53:15;100174.75;;;33.26;34.04
19286;BME280;9776;50.798;6.430;2023-06-22T07:55:42;100178.72;;;33.47;33.66
19286;BME280;9776;50.798;6.430;2023-06-22T07:58:09;100184.50;;;33.59;33.33
19286;BME280;9776;50.798;6.430;2023-06-22T08:00:36;100190.38;;;33.80;33.08
19286;BME280;9776;50.798;6.430;2023-06-22T08:03:03;100181.63;;;33.92;32.97
19286;BME280;9776;50.798;6.430;2023-06-22T08:05:30;100172.38;;;34.01;32.99
19286;BME280;9776;50.798;6.430;2023-06-22T08:07:57;100165.38;;;34.09;32.88
19286;BME280;9776;50.798;6.430;2023-06-22T08:10:24;100151.72;;;34.31;32.62
19286;BME280;9776;50.798;6.430;2023-06-22T08:12:51;100158.72;;;34.59;32.19
19286;BME280;9776;50.798;6.430;2023-06-22T08:15:18;100148.50;;;34.73;32.13
19286;BME280;9776;50.798;6.430;2023-06-22T08:17:46;100142.06;;;34.78;32.16
19286;BME280;9776;50.798;6.430;2023-06-22T08:20:13;100137.72;;;35.08;32.01
19286;BME280;9776;50.798;6.430;2023-06-22T08:22:40;100133.47;;;35.33;31.55
19286;BME280;9776;50.798;6.430;2023-06-22T08:25:08;100125.56;;;35.00;31.92
19286;BME280;9776;50.798;6.430;2023-06-22T08:27:35;100135.16;;;34.58;32.74
19286;BME280;9776;50.798;6.430;2023-06-22T08:30:02;100145.59;;;34.12;33.33
19286;BME280;9776;50.798;6.430;2023-06-22T08:32:29;100154.47;;;33.82;33.83
19286;BME280;9776;50.798;6.430;2023-06-22T08:34:59;100154.50;;;33.27;34.66
19286;BME280;9776;50.798;6.430;2023-06-22T08:37:25;100141.22;;;32.75;35.58
19286;BME280;9776;50.798;6.430;2023-06-22T08:39:56;100140.38;;;32.61;35.79
19286;BME280;9776;50.798;6.430;2023-06-22T08:42:23;100142.81;;;32.43;36.20
19286;BME280;9776;50.798;6.430;2023-06-22T08:44:51;100142.97;;;32.84;35.68
19286;BME280;9776;50.798;6.430;2023-06-22T08:47:18;100138.69;;;33.24;35.31
19286;BME280;9776;50.798;6.430;2023-06-22T08:49:44;100131.09;;;33.62;34.57
19286;BME280;9776;50.798;6.430;2023-06-22T08:52:12;100129.31;;;34.51;33.42
19286;BME280;9776;50.798;6.430;2023-06-22T08:54:39;100134.09;;;35.21;32.41
19286;BME280;9776;50.798;6.430;2023-06-22T08:57:06;100124.44;;;36.06;31.19
19286;BME280;9776;50.798;6.430;2023-06-22T08:59:32;100123.75;;;36.60;30.65
19286;BME280;9776;50.798;6.430;2023-06-22T09:01:59;100124.69;;;36.81;30.46
19286;BME280;9776;50.798;6.430;2023-06-22T09:04:26;100123.25;;;37.22;29.77
19286;BME280;9776;50.798;6.430;2023-06-22T09:06:52;100119.38;;;37.52;29.79
19286;BME280;9776;50.798;6.430;2023-06-22T09:09:21;100111.06;;;37.31;29.75
19286;BME280;9776;50.798;6.430;2023-06-22T09:11:48;100110.00;;;37.15;30.14
19286;BME280;9776;50.798;6.430;2023-06-22T09:14:15;100092.94;;;37.60;29.79
19286;BME280;9776;50.798;6.430;2023-06-22T09:16:41;100082.38;;;37.82;29.14
19286;BME280;9776;50.798;6.430;2023-06-22T09:19:08;100080.84;;;38.14;29.29
19286;BME280;9776;50.798;6.430;2023-06-22T09:21:35;100079.38;;;38.49;28.34
19286;BME280;9776;50.798;6.430;2023-06-22T09:24:02;100075.66;;;38.78;28.42
19286;BME280;9776;50.798;6.430;2023-06-22T09:26:30;100083.50;;;39.00;27.99
19286;BME280;9776;50.798;6.430;2023-06-22T09:28:57;100077.19;;;38.55;28.44
19286;BME280;9776;50.798;6.430;2023-06-22T09:31:24;100081.38;;;37.66;29.88
19286;BME280;9776;50.798;6.430;2023-06-22T09:33:52;100074.09;;;36.65;31.16
19286;BME280;9776;50.798;6.430;2023-06-22T09:36:19;100084.47;;;35.82;32.09
19286;BME280;9776;50.798;6.430;2023-06-22T09:38:46;100082.72;;;35.21;33.19
19286;BME280;9776;50.798;6.430;2023-06-22T09:41:12;100075.53;;;34.64;34.01
19286;BME280;9776;50.798;6.430;2023-06-22T09:43:40;100083.09;;;34.14;35.00
19286;BME280;9776;50.798;6.430;2023-06-22T09:46:07;100080.28;;;33.56;36.05
19286;BME280;9776;50.798;6.430;2023-06-22T09:48:34;100096.88;;;33.05;37.02
19286;BME280;9776;50.798;6.430;2023-06-22T09:51:01;100121.59;;;32.54;37.80
19286;BME280;9776;50.798;6.430;2023-06-22T09:53:27;100143.28;;;32.13;38.38
19286;BME280;9776;50.798;6.430;2023-06-22T09:55:54;100160.81;;;31.88;38.92
19286;BME280;9776;50.798;6.430;2023-06-22T09:58:22;100174.72;;;31.68;39.55
19286;BME280;9776;50.798;6.430;2023-06-22T10:00:50;100181.38;;;31.33;41.31
19286;BME280;9776;50.798;6.430;2023-06-22T10:03:18;100185.72;;;31.11;42.34
19286;BME280;9776;50.798;6.430;2023-06-22T10:05:44;100180.25;;;30.82;44.04
19286;BME280;9776;50.798;6.430;2023-06-22T10:08:11;100185.94;;;30.52;45.87
19286;BME280;9776;50.798;6.430;2023-06-22T10:10:38;100181.66;;;30.41;47.21
19286;BME280;9776;50.798;6.430;2023-06-22T10:13:08;100189.84;;;30.30;47.99
19286;BME280;9776;50.798;6.430;2023-06-22T10:15:35;100193.75;;;30.19;48.43
19286;BME280;9776;50.798;6.430;2023-06-22T10:18:04;100199.56;;;30.03;48.94
19286;BME280;9776;50.798;6.430;2023-06-22T10:20:30;100208.06;;;29.91;49.22
19286;BME280;9776;50.798;6.430;2023-06-22T10:22:57;100214.63;;;29.75;49.78
19286;BME280;9776;50.798;6.430;2023-06-22T10:25:24;100210.03;;;29.65;50.69
19286;BME280;9776;50.798;6.430;2023-06-22T10:27:50;100214.66;;;29.65;50.99
19286;BME280;9776;50.798;6.430;2023-06-22T10:30:17;100216.56;;;29.64;51.34
19286;BME280;9776;50.798;6.430;2023-06-22T10:32:44;100217.97;;;29.57;51.81
19286;BME280;9776;50.798;6.430;2023-06-22T10:35:12;100220.13;;;29.50;52.23
19286;BME280;9776;50.798;6.430;2023-06-22T10:37:39;100208.22;;;29.31;52.81
19286;BME280;9776;50.798;6.430;2023-06-22T10:40:08;100193.25;;;29.18;52.97
19286;BME280;9776;50.798;6.430;2023-06-22T10:42:35;100188.69;;;29.08;52.75
19286;BME280;9776;50.798;6.430;2023-06-22T10:45:02;100179.72;;;28.93;52.95
19286;BME280;9776;50.798;6.430;2023-06-22T10:47:29;100174.03;;;28.79;53.33
19286;BME280;9776;50.798;6.430;2023-06-22T10:49:55;100171.31;;;28.69;53.77
19286;BME280;9776;50.798;6.430;2023-06-22T10:52:23;100158.50;;;28.54;54.21
19286;BME280;9776;50.798;6.430;2023-06-22T10:54:50;100139.53;;;28.39;54.33
19286;BME280;9776;50.798;6.430;2023-06-22T10:57:17;100113.44;;;28.18;54.72
19286;BME280;9776;50.798;6.430;2023-06-22T10:59:44;100067.50;;;27.86;55.68
19286;BME280;9776;50.798;6.430;2023-06-22T11:02:10;100001.84;;;27.64;56.46
19286;BME280;9776;50.798;6.430;2023-06-22T11:04:37;99990.97;;;27.54;56.78
19286;BME280;9776;50.798;6.430;2023-06-22T11:07:04;100035.44;;;27.58;57.68
19286;BME280;9776;50.798;6.430;2023-06-22T11:09:32;100054.72;;;27.72;57.71
19286;BME280;9776;50.798;6.430;2023-06-22T11:11:58;100037.69;;;28.11;57.54
19286;BME280;9776;50.798;6.430;2023-06-22T11:14:25;100028.47;;;28.68;56.36
19286;BME280;9776;50.798;6.430;2023-06-22T11:16:52;100022.56;;;29.20;54.96
19286;BME280;9776;50.798;6.430;2023-06-22T11:19:19;100032.91;;;29.72;54.01
19286;BME280;9776;50.798;6.430;2023-06-22T11:21:45;100027.41;;;30.50;52.08
19286;BME280;9776;50.798;6.430;2023-06-22T11:24:12;100028.38;;;31.91;48.97
19286;BME280;9776;50.798;6.430;2023-06-22T11:26:40;100018.47;;;33.77;44.85
19286;BME280;9776;50.798;6.430;2023-06-22T11:29:06;100013.03;;;34.52;43.09
19286;BME280;9776;50.798;6.430;2023-06-22T11:31:33;100011.97;;;34.09;43.76
19286;BME280;9776;50.798;6.430;2023-06-22T11:34:00;100009.03;;;33.47;44.81
19286;BME280;9776;50.798;6.430;2023-06-22T11:36:27;100006.06;;;32.81;46.14
19286;BME280;9776;50.798;6.430;2023-06-22T11:38:54;100002.94;;;32.28;47.02
19286;BME280;9776;50.798;6.430;2023-06-22T11:41:20;100001.47;;;32.03;47.46
19286;BME280;9776;50.798;6.430;2023-06-22T11:43:49;99997.66;;;31.99;47.27
19286;BME280;9776;50.798;6.430;2023-06-22T11:46:15;99993.38;;;31.93;47.65
19286;BME280;9776;50.798;6.430;2023-06-22T11:48:42;99997.34;;;31.68;48.07
19286;BME280;9776;50.798;6.430;2023-06-22T11:51:08;100003.28;;;31.33;48.51
19286;BME280;9776;50.798;6.430;2023-06-22T11:53:35;99997.59;;;31.11;48.83
19286;BME280;9776;50.798;6.430;2023-06-22T11:56:02;99993.66;;;30.98;49.19
19286;BME280;9776;50.798;6.430;2023-06-22T11:58:28;99983.53;;;31.22;48.54
19286;BME280;9776;50.798;6.430;2023-06-22T12:00:56;99978.75;;;31.52;47.76
19286;BME280;9776;50.798;6.430;2023-06-22T12:03:23;99977.06;;;31.56;47.47
19286;BME280;9776;50.798;6.430;2023-06-22T12:05:50;99976.47;;;31.59;47.93
19286;BME280;9776;50.798;6.430;2023-06-22T12:08:17;99971.97;;;31.68;47.48
19286;BME280;9776;50.798;6.430;2023-06-22T12:10:44;99972.84;;;31.82;47.29
19286;BME280;9776;50.798;6.430;2023-06-22T12:13:11;99965.59;;;31.91;47.01
19286;BME280;9776;50.798;6.430;2023-06-22T12:15:38;99969.13;;;31.91;47.14
19286;BME280;9776;50.798;6.430;2023-06-22T12:18:06;99972.31;;;31.80;47.29
19286;BME280;9776;50.798;6.430;2023-06-22T12:20:33;99969.63;;;31.61;47.87
19286;BME280;9776;50.798;6.430;2023-06-22T12:23:01;99964.31;;;31.51;48.11
19286;BME280;9776;50.798;6.430;2023-06-22T12:25:27;99952.00;;;31.54;48.27
19286;BME280;9776;50.798;6.430;2023-06-22T12:27:54;99949.03;;;31.69;47.67
19286;BME280;9776;50.798;6.430;2023-06-22T12:30:20;99943.75;;;31.91;47.03
19286;BME280;9776;50.798;6.430;2023-06-22T12:32:47;99938.69;;;32.30;46.43
19286;BME280;9776;50.798;6.430;2023-06-22T12:35:16;99939.06;;;32.70;45.59
19286;BME280;9776;50.798;6.430;2023-06-22T12:37:43;99927.00;;;32.84;44.94
19286;BME280;9776;50.798;6.430;2023-06-22T12:40:10;99926.06;;;32.89;44.65
19286;BME280;9776;50.798;6.430;2023-06-22T12:42:37;99926.16;;;32.97;44.23
19286;BME280;9776;50.798;6.430;2023-06-22T12:45:04;99922.44;;;32.80;44.29
19286;BME280;9776;50.798;6.430;2023-06-22T12:47:31;99912.22;;;32.58;44.81
19286;BME280;9776;50.798;6.430;2023-06-22T12:49:58;99908.97;;;32.29;45.12
19286;BME280;9776;50.798;6.430;2023-06-22T12:52:26;99920.88;;;32.06;45.51
19286;BME280;9776;50.798;6.430;2023-06-22T12:54:52;99919.56;;;31.84;46.13
19286;BME280;9776;50.798;6.430;2023-06-22T12:57:19;99911.94;;;31.68;46.52
19286;BME280;9776;50.798;6.430;2023-06-22T12:59:46;99909.38;;;31.39;46.97
19286;BME280;9776;50.798;6.430;2023-06-22T13:02:13;99904.31;;;31.14;47.77
19286;BME280;9776;50.798;6.430;2023-06-22T13:04:39;99904.41;;;30.85;48.44